Time;durP1;ratioP1;P1;durP2;ratioP2;P2;SDS_P1;SDS_P2;PMS_P1;PMS_P2;Temp;Humidity;BMP_temperature;BMP_pressure;BME280_temperature;BME280_humidity;BME280_pressure;Samples;Min_cycle;Max_cycle;Signal;HPM_P1;HPM_P2
2021/11/05 00:00:15;;;;;;;0.90;0.60;;;10.90;87.90;;;;;;5030556;28;20116;-79
2021/11/05 00:02:41;;;;;;;2.95;0.57;;;10.80;87.90;;;;;;5028470;28;20060;-79
2021/11/05 00:05:07;;;;;;;1.45;0.50;;;10.80;87.90;;;;;;5029793;28;20076;-78
2021/11/05 00:07:33;;;;;;;0.47;0.40;;;10.80;88.00;;;;;;5028207;28;20034;-78
2021/11/05 00:09:58;;;;;;;1.20;0.70;;;10.80;88.00;;;;;;5034213;28;20029;-78
2021/11/05 00:12:24;;;;;;;2.63;0.50;;;10.80;88.20;;;;;;5036097;28;20029;-78
2021/11/05 00:14:50;;;;;;;1.17;0.50;;;10.70;88.20;;;;;;5034534;28;20025;-78
2021/11/05 00:17:15;;;;;;;1.48;0.63;;;10.80;88.40;;;;;;5027927;28;20038;-78
2021/11/05 00:19:41;;;;;;;4.18;1.10;;;10.70;88.50;;;;;;5035322;28;20060;-78
2021/11/05 00:22:07;;;;;;;3.38;0.95;;;10.80;88.90;;;;;;5035842;28;20449;-78
2021/11/05 00:24:33;;;;;;;1.02;0.63;;;10.80;89.10;;;;;;5023426;28;20065;-78
2021/11/05 00:26:59;;;;;;;1.23;0.45;;;10.80;89.10;;;;;;5026706;28;20108;-77
2021/11/05 00:29:25;;;;;;;2.53;0.68;;;10.80;89.20;;;;;;5036191;28;20125;-78
2021/11/05 00:31:50;;;;;;;0.70;0.50;;;10.80;89.20;;;;;;5036803;28;20037;-77
2021/11/05 00:34:17;;;;;;;1.83;0.43;;;10.80;89.10;;;;;;5026684;28;20025;-77
2021/11/05 00:36:50;;;;;;;3.50;0.73;;;10.80;89.00;;;;;;5032686;28;20116;-77
2021/11/05 00:39:15;;;;;;;2.85;1.55;;;10.90;89.10;;;;;;5036299;28;20208;-78
2021/11/05 00:41:41;;;;;;;2.20;0.73;;;10.90;88.90;;;;;;5035183;28;20164;-77
2021/11/05 00:44:07;;;;;;;3.13;0.63;;;10.80;88.60;;;;;;5030810;28;20022;-78
2021/11/05 00:46:33;;;;;;;3.40;1.15;;;10.80;88.60;;;;;;5037504;28;20053;-78
2021/11/05 00:49:00;;;;;;;1.05;0.70;;;10.80;88.50;;;;;;5023417;28;20033;-79
2021/11/05 00:51:27;;;;;;;8.00;0.77;;;10.70;88.50;;;;;;5026611;28;20378;-81
2021/11/05 00:53:52;;;;;;;1.20;0.73;;;10.70;88.60;;;;;;5022480;28;20172;-79
2021/11/05 00:56:18;;;;;;;2.88;0.55;;;10.70;88.60;;;;;;5037409;28;20057;-79
2021/11/05 00:58:43;;;;;;;2.03;0.65;;;10.70;88.60;;;;;;5034528;28;20025;-79
2021/11/05 01:01:09;;;;;;;0.90;0.40;;;10.70;88.60;;;;;;5023203;28;20036;-79
2021/11/05 01:03:35;;;;;;;0.57;0.57;;;10.60;88.50;;;;;;5034358;28;20417;-78
2021/11/05 01:06:01;;;;;;;0.65;0.40;;;10.60;88.50;;;;;;5026489;28;20029;-78
2021/11/05 01:08:27;;;;;;;0.98;0.52;;;10.60;88.50;;;;;;5028749;28;20052;-79
2021/11/05 01:10:54;;;;;;;2.83;0.65;;;10.60;88.60;;;;;;5030998;28;20025;-79
2021/11/05 01:13:22;;;;;;;1.13;0.63;;;10.60;88.80;;;;;;5036672;28;20112;-79
2021/11/05 01:15:48;;;;;;;6.28;0.80;;;10.50;88.70;;;;;;5025486;28;20112;-79
2021/11/05 01:18:13;;;;;;;1.63;0.88;;;10.60;88.80;;;;;;5026302;28;20045;-78
2021/11/05 01:20:39;;;;;;;5.65;1.05;;;10.60;88.80;;;;;;5035828;28;20037;-79
2021/11/05 01:23:07;;;;;;;5.43;0.82;;;10.50;88.80;;;;;;5033048;28;20040;-78
2021/11/05 01:25:35;;;;;;;3.13;1.08;;;10.50;88.80;;;;;;5033074;28;20096;-79
2021/11/05 01:28:01;;;;;;;3.58;1.80;;;10.60;88.80;;;;;;5034316;28;20395;-78
2021/11/05 01:30:27;;;;;;;8.05;2.47;;;10.60;88.80;;;;;;5030991;28;20034;-78
2021/11/05 01:32:53;;;;;;;2.47;1.42;;;10.50;88.80;;;;;;5032769;28;20083;-79
2021/11/05 01:35:19;;;;;;;5.78;1.50;;;10.50;88.70;;;;;;5031301;28;20083;-78
2021/11/05 01:37:45;;;;;;;6.63;1.13;;;10.50;88.70;;;;;;5032764;28;20029;-78
2021/11/05 01:40:12;;;;;;;3.38;1.10;;;10.50;88.60;;;;;;5039673;28;20077;-78
2021/11/05 01:42:38;;;;;;;2.50;1.02;;;10.40;88.50;;;;;;5033115;28;20044;-78
2021/11/05 01:45:06;;;;;;;4.65;1.48;;;10.40;88.50;;;;;;5031703;28;20037;-78
2021/11/05 01:47:32;;;;;;;12.13;1.85;;;10.40;88.40;;;;;;5033198;28;20037;-79
2021/11/05 01:49:58;;;;;;;11.15;3.60;;;10.30;88.30;;;;;;5033555;28;20021;-77
2021/11/05 01:52:23;;;;;;;14.52;3.63;;;10.30;88.50;;;;;;5030815;28;20504;-78
2021/11/05 01:54:50;;;;;;;5.70;1.23;;;10.20;88.60;;;;;;5033758;28;20022;-78
2021/11/05 01:57:16;;;;;;;6.82;1.80;;;10.20;88.70;;;;;;5032399;28;20432;-78
2021/11/05 01:59:48;;;;;;;2.10;0.88;;;10.10;88.70;;;;;;5032621;28;20120;-79
2021/11/05 02:02:14;;;;;;;5.35;1.23;;;10.10;88.80;;;;;;5032947;28;20108;-78
2021/11/05 02:04:40;;;;;;;2.58;1.30;;;10.10;88.90;;;;;;5027260;28;20133;-78
2021/11/05 02:07:09;;;;;;;1.00;0.82;;;10.00;89.00;;;;;;5015886;28;20026;-79
2021/11/05 02:09:38;;;;;;;2.28;1.20;;;10.00;89.00;;;;;;5031133;28;20041;-78
2021/11/05 02:12:04;;;;;;;1.75;1.00;;;10.00;89.10;;;;;;5032205;28;20029;-78
2021/11/05 02:14:30;;;;;;;1.63;1.05;;;10.00;89.20;;;;;;5019596;28;20037;-78
2021/11/05 02:17:01;;;;;;;2.15;1.10;;;9.90;89.10;;;;;;5033394;28;20029;-77
2021/11/05 02:19:29;;;;;;;3.92;1.65;;;10.00;89.20;;;;;;5031198;28;20033;-79
2021/11/05 02:21:56;;;;;;;7.07;1.15;;;10.00;89.20;;;;;;5030153;28;20017;-78
2021/11/05 02:24:24;;;;;;;2.25;1.13;;;10.00;89.30;;;;;;5032688;28;20037;-78
2021/11/05 02:26:50;;;;;;;2.70;0.95;;;9.90;89.20;;;;;;5031910;28;20079;-78
2021/11/05 02:29:16;;;;;;;1.20;1.10;;;9.90;89.20;;;;;;5032944;28;20037;-78
2021/11/05 02:31:42;;;;;;;4.95;1.60;;;9.90;89.10;;;;;;5032042;28;20477;-78
2021/11/05 02:34:08;;;;;;;2.50;1.27;;;9.90;89.20;;;;;;5015438;28;20088;-78
2021/11/05 02:36:34;;;;;;;1.13;0.50;;;9.80;89.10;;;;;;5030056;28;20116;-78
2021/11/05 02:39:07;;;;;;;1.63;1.05;;;9.90;89.10;;;;;;5031680;28;20113;-77
2021/11/05 02:41:35;;;;;;;0.83;0.80;;;9.80;89.10;;;;;;5032892;28;20029;-79
2021/11/05 02:44:00;;;;;;;2.90;1.20;;;9.80;89.10;;;;;;5025395;28;20025;-78
2021/11/05 02:46:26;;;;;;;1.65;0.80;;;9.80;89.10;;;;;;5032789;28;20056;-79
2021/11/05 02:48:56;;;;;;;2.95;1.10;;;9.80;89.10;;;;;;5030848;28;20045;-78
2021/11/05 02:51:22;;;;;;;0.73;0.68;;;9.70;89.20;;;;;;5026265;28;20045;-79
2021/11/05 02:53:47;;;;;;;1.23;0.93;;;9.70;89.20;;;;;;5029630;28;20039;-79
2021/11/05 02:56:13;;;;;;;8.38;1.17;;;9.70;89.20;;;;;;5030355;28;20035;-79
2021/11/05 02:58:39;;;;;;;3.30;1.10;;;9.70;89.20;;;;;;5032292;28;20403;-77
2021/11/05 03:01:04;;;;;;;3.20;1.30;;;9.60;89.20;;;;;;5030846;28;20079;-78
2021/11/05 03:03:30;;;;;;;10.43;1.50;;;9.60;89.20;;;;;;5030979;28;20053;-78
2021/11/05 03:05:56;;;;;;;3.22;1.40;;;9.70;89.30;;;;;;5011998;28;20076;-78
2021/11/05 03:08:21;;;;;;;4.07;1.40;;;9.60;89.30;;;;;;5020490;28;20041;-77
2021/11/05 03:10:47;;;;;;;5.95;1.58;;;9.60;89.30;;;;;;5030056;28;20025;-80
2021/11/05 03:13:13;;;;;;;6.03;1.48;;;9.60;89.30;;;;;;5026979;28;20037;-80
2021/11/05 03:15:38;;;;;;;6.13;1.48;;;9.60;89.30;;;;;;5024445;28;20029;-79
2021/11/05 03:18:04;;;;;;;2.80;0.85;;;9.60;89.30;;;;;;5030236;28;20025;-80
2021/11/05 03:20:30;;;;;;;1.50;1.08;;;9.50;89.30;;;;;;5032072;28;20104;-79
2021/11/05 03:22:59;;;;;;;4.60;1.67;;;9.60;89.30;;;;;;5030237;28;20400;-79
2021/11/05 03:25:25;;;;;;;7.07;2.03;;;9.50;89.20;;;;;;5019680;28;20040;-79
2021/11/05 03:27:50;;;;;;;3.13;1.17;;;9.50;89.30;;;;;;5030659;28;20045;-79
2021/11/05 03:30:19;;;;;;;8.70;1.85;;;9.50;89.30;;;;;;5018475;28;20029;-79
2021/11/05 03:32:46;;;;;;;3.28;0.98;;;9.50;89.40;;;;;;5020910;28;20034;-79
2021/11/05 03:35:13;;;;;;;3.85;1.38;;;9.50;89.40;;;;;;5018627;28;20120;-79
2021/11/05 03:37:41;;;;;;;3.63;0.82;;;9.50;89.40;;;;;;5031581;28;20029;-79
2021/11/05 03:40:09;;;;;;;4.78;1.20;;;9.50;89.40;;;;;;5029551;28;20032;-78
2021/11/05 03:42:35;;;;;;;5.43;1.35;;;9.50;89.40;;;;;;5031148;28;20030;-79
2021/11/05 03:45:01;;;;;;;10.95;1.60;;;9.40;89.40;;;;;;5030484;28;20059;-76
2021/11/05 03:47:26;;;;;;;1.70;1.02;;;9.50;89.50;;;;;;5017866;28;20041;-78
2021/11/05 03:49:52;;;;;;;6.05;1.23;;;9.50;89.40;;;;;;5031314;28;20029;-78
2021/11/05 03:52:18;;;;;;;10.02;2.50;;;9.50;89.40;;;;;;5017178;28;20039;-78
2021/11/05 03:54:44;;;;;;;7.95;1.88;;;9.50;89.40;;;;;;5029832;28;20036;-79
2021/11/05 03:57:11;;;;;;;6.00;1.80;;;9.50;89.40;;;;;;5029916;28;20045;-79
2021/11/05 03:59:39;;;;;;;14.82;2.60;;;9.40;89.30;;;;;;5019006;28;20059;-78
2021/11/05 04:02:05;;;;;;;7.65;1.70;;;9.40;89.30;;;;;;5030877;28;20456;-77
2021/11/05 04:04:31;;;;;;;4.22;1.63;;;9.40;89.30;;;;;;5027121;28;20312;-78
2021/11/05 04:06:57;;;;;;;15.10;2.30;;;9.40;89.20;;;;;;5030514;28;20033;-78
2021/11/05 04:09:22;;;;;;;4.10;1.83;;;9.40;89.20;;;;;;5029298;28;20440;-77
2021/11/05 04:11:48;;;;;;;7.82;1.85;;;9.40;89.20;;;;;;5029691;28;20022;-78
2021/11/05 04:14:14;;;;;;;14.35;2.03;;;9.40;89.20;;;;;;5029762;28;20067;-77
2021/11/05 04:16:40;;;;;;;6.32;2.13;;;9.40;89.20;;;;;;5031064;28;20025;-78
2021/11/05 04:19:05;;;;;;;7.80;2.22;;;9.40;89.10;;;;;;5030107;28;20038;-78
2021/11/05 04:21:32;;;;;;;4.22;1.90;;;9.40;89.10;;;;;;5012734;28;20029;-78
2021/11/05 04:23:58;;;;;;;10.85;1.95;;;9.40;89.10;;;;;;5022740;28;20033;-77
2021/11/05 04:26:24;;;;;;;3.83;1.95;;;9.40;89.00;;;;;;5015451;28;20060;-79
2021/11/05 04:28:49;;;;;;;4.95;1.73;;;9.40;89.60;;;;;;5011894;28;20389;-78
2021/11/05 04:31:17;;;;;;;4.95;2.05;;;9.40;89.00;;;;;;5024699;28;20034;-78
2021/11/05 04:33:43;;;;;;;4.68;1.50;;;9.40;88.90;;;;;;5016858;28;20032;-78
2021/11/05 04:36:09;;;;;;;3.35;1.65;;;9.40;88.90;;;;;;5020774;28;20045;-78
2021/11/05 04:38:37;;;;;;;8.05;1.88;;;9.50;89.00;;;;;;5013665;28;20037;-78
2021/11/05 04:41:03;;;;;;;2.65;1.05;;;9.40;88.80;;;;;;5018219;28;20037;-78
2021/11/05 04:43:29;;;;;;;4.70;1.00;;;9.40;88.90;;;;;;5029933;28;20037;-78
2021/11/05 04:45:55;;;;;;;1.38;1.10;;;9.40;88.90;;;;;;5026808;28;20026;-78
2021/11/05 04:48:21;;;;;;;1.00;0.90;;;9.40;88.80;;;;;;5030403;28;20861;-79
2021/11/05 04:50:48;;;;;;;2.05;0.85;;;9.40;88.80;;;;;;5030340;28;20036;-78
2021/11/05 04:53:13;;;;;;;6.25;1.33;;;9.40;88.80;;;;;;5029244;28;20029;-79
2021/11/05 04:55:39;;;;;;;5.28;1.27;;;9.30;88.80;;;;;;5027878;28;20432;-77
2021/11/05 04:58:05;;;;;;;2.05;1.08;;;9.30;88.80;;;;;;5032249;28;20033;-78
2021/11/05 05:00:31;;;;;;;9.80;1.75;;;9.30;88.80;;;;;;5021908;28;20109;-78
2021/11/05 05:02:57;;;;;;;15.15;1.98;;;9.30;88.80;;;;;;5017492;28;20029;-77
2021/11/05 05:05:24;;;;;;;2.88;1.55;;;9.20;88.80;;;;;;5029446;28;20097;-78
2021/11/05 05:07:50;;;;;;;9.90;2.30;;;9.20;89.50;;;;;;5028490;28;20472;-78
2021/11/05 05:10:17;;;;;;;2.47;1.55;;;9.20;89.10;;;;;;5020469;28;20504;-78
2021/11/05 05:12:43;;;;;;;8.52;1.38;;;9.20;89.30;;;;;;5028687;28;20021;-78
2021/11/05 05:15:10;;;;;;;6.57;1.20;;;9.20;89.20;;;;;;5034110;28;20021;-77
2021/11/05 05:17:37;;;;;;;9.90;1.17;;;9.30;89.30;;;;;;5031755;28;20033;-77
2021/11/05 05:20:08;;;;;;;4.32;1.33;;;9.30;89.20;;;;;;5032066;28;20037;-77
2021/11/05 05:22:34;;;;;;;4.20;1.60;;;9.20;89.10;;;;;;5031465;28;20033;-77
2021/11/05 05:25:00;;;;;;;9.02;1.70;;;9.20;89.00;;;;;;5026200;28;20029;-76
2021/11/05 05:27:26;;;;;;;4.78;1.70;;;9.30;89.20;;;;;;5026865;28;20026;-77
2021/11/05 05:29:51;;;;;;;2.60;1.23;;;9.20;89.40;;;;;;5032786;28;20040;-78
2021/11/05 05:32:17;;;;;;;4.18;1.25;;;9.30;89.40;;;;;;5024055;28;20030;-79
2021/11/05 05:34:43;;;;;;;4.82;1.40;;;9.30;89.40;;;;;;5015518;28;20037;-79
2021/11/05 05:37:08;;;;;;;7.75;1.17;;;9.40;89.50;;;;;;5031325;28;20029;-78
2021/11/05 05:39:34;;;;;;;7.35;2.38;;;9.30;89.30;;;;;;5034208;28;20121;-70
2021/11/05 05:42:00;;;;;;;8.27;1.85;;;9.30;89.40;;;;;;5032179;28;20079;-77
2021/11/05 05:44:26;;;;;;;9.10;2.90;;;9.30;89.40;;;;;;5032122;28;20033;-71
2021/11/05 05:46:52;;;;;;;8.75;2.47;;;9.30;89.30;;;;;;5031646;28;20041;-79
2021/11/05 05:49:18;;;;;;;8.57;2.75;;;9.30;89.30;;;;;;5032245;28;20037;-76
2021/11/05 05:51:44;;;;;;;5.57;2.17;;;9.40;89.30;;;;;;5032918;28;20064;-76
2021/11/05 05:54:10;;;;;;;5.82;1.90;;;9.40;89.30;;;;;;5030392;28;20038;-77
2021/11/05 05:56:36;;;;;;;3.88;1.30;;;9.40;89.30;;;;;;5030721;28;20034;-77
2021/11/05 05:59:04;;;;;;;3.80;1.45;;;9.40;89.20;;;;;;5019088;28;20088;-77
2021/11/05 06:01:29;;;;;;;7.80;1.92;;;9.30;89.20;;;;;;5032986;28;20033;-78
2021/11/05 06:03:59;;;;;;;6.68;1.38;;;9.30;89.20;;;;;;5030080;28;20060;-77
2021/11/05 06:06:26;;;;;;;3.35;1.23;;;9.30;89.20;;;;;;5016928;28;20022;-78
2021/11/05 06:08:51;;;;;;;3.90;0.90;;;9.30;89.20;;;;;;5027030;28;20060;-76
2021/11/05 06:11:17;;;;;;;4.57;0.98;;;9.30;89.30;;;;;;5027813;28;20071;-73
2021/11/05 06:13:42;;;;;;;2.25;0.88;;;9.20;89.20;;;;;;5031647;28;20026;-75
2021/11/05 06:16:09;;;;;;;5.28;1.35;;;9.20;89.30;;;;;;5032704;28;20029;-73
2021/11/05 06:18:35;;;;;;;3.13;1.10;;;9.20;89.40;;;;;;5032955;28;20482;-76
2021/11/05 06:21:01;;;;;;;7.35;1.10;;;9.20;89.50;;;;;;5030673;28;20064;-78
2021/11/05 06:23:27;;;;;;;3.20;0.68;;;9.20;89.50;;;;;;5027128;28;20571;-78
2021/11/05 06:25:52;;;;;;;2.10;0.80;;;9.20;89.60;;;;;;5031006;28;20022;-77
2021/11/05 06:28:18;;;;;;;0.57;0.57;;;9.20;89.60;;;;;;5028924;28;20429;-78
2021/11/05 06:30:44;;;;;;;4.22;1.67;;;9.20;89.70;;;;;;5030972;28;20033;-78
2021/11/05 06:33:09;;;;;;;3.72;0.82;;;9.20;89.80;;;;;;5030688;28;20037;-79
2021/11/05 06:35:35;;;;;;;4.85;0.77;;;9.20;89.80;;;;;;5030833;28;20366;-78
2021/11/05 06:38:01;;;;;;;2.60;0.77;;;9.20;89.80;;;;;;5031135;28;20577;-79
2021/11/05 06:40:26;;;;;;;3.55;1.20;;;9.20;89.90;;;;;;5029833;28;20021;-78
2021/11/05 06:42:52;;;;;;;1.52;0.70;;;9.20;89.90;;;;;;5031121;28;20456;-78
2021/11/05 06:45:18;;;;;;;9.10;1.00;;;9.30;90.00;;;;;;5029310;28;20022;-77
2021/11/05 06:47:44;;;;;;;3.63;1.20;;;9.20;89.90;;;;;;5027932;28;20052;-77
2021/11/05 06:50:10;;;;;;;1.02;0.73;;;9.30;90.00;;;;;;5030874;28;20027;-78
2021/11/05 06:52:36;;;;;;;0.40;0.40;;;9.30;90.00;;;;;;5029451;28;20029;-77
2021/11/05 06:55:04;;;;;;;3.70;0.60;;;9.30;90.00;;;;;;5029054;28;20044;-78
2021/11/05 06:57:30;;;;;;;3.50;1.10;;;9.30;90.00;;;;;;5026041;28;20465;-78
2021/11/05 06:59:57;;;;;;;4.82;1.15;;;9.30;90.00;;;;;;5027052;28;20040;-77
2021/11/05 07:02:23;;;;;;;2.42;1.13;;;9.30;90.00;;;;;;5028484;28;20069;-77
2021/11/05 07:04:49;;;;;;;4.70;1.90;;;9.30;90.00;;;;;;5030269;28;20060;-77
2021/11/05 07:07:14;;;;;;;3.08;1.45;;;9.40;90.30;;;;;;5034724;28;20025;-83
2021/11/05 07:09:40;;;;;;;3.35;1.45;;;9.40;90.10;;;;;;5035948;28;20034;-86
2021/11/05 07:12:06;;;;;;;10.07;1.67;;;9.40;90.00;;;;;;5033559;28;20461;-81
2021/11/05 07:14:33;;;;;;;6.50;1.30;;;9.40;90.00;;;;;;5028238;28;20519;-81
2021/11/05 07:16:59;;;;;;;7.05;1.08;;;9.40;90.10;;;;;;5027315;28;20044;-75
2021/11/05 07:19:25;;;;;;;4.50;2.15;;;9.40;90.10;;;;;;5014123;28;20022;-76
2021/11/05 07:22:04;;;;;;;1.85;1.00;;;9.50;90.30;;;;;;5026680;28;20025;-79
2021/11/05 07:24:36;;;;;;;3.60;0.90;;;9.50;90.60;;;;;;5029868;28;20066;-81
2021/11/05 07:27:02;;;;;;;4.75;1.15;;;9.60;90.70;;;;;;5027351;28;20104;-81
2021/11/05 07:29:31;;;;;;;4.53;1.25;;;9.70;90.90;;;;;;5030580;28;20048;-80
2021/11/05 07:31:59;;;;;;;2.92;0.88;;;9.80;90.90;;;;;;5026957;28;20037;-80
2021/11/05 07:34:29;;;;;;;3.42;1.15;;;9.80;91.10;;;;;;5030390;28;20072;-75
2021/11/05 07:36:59;;;;;;;5.63;1.90;;;9.90;91.30;;;;;;5026778;28;20029;-81
2021/11/05 07:39:25;;;;;;;5.75;0.88;;;9.90;91.40;;;;;;5028348;28;20124;-78
2021/11/05 07:41:50;;;;;;;2.05;0.98;;;10.00;91.30;;;;;;5028357;28;20064;-78
2021/11/05 07:44:16;;;;;;;5.72;1.45;;;10.00;91.20;;;;;;5028619;28;20029;-78
2021/11/05 07:46:44;;;;;;;1.85;0.93;;;10.10;91.00;;;;;;5028475;28;20040;-76
2021/11/05 07:49:10;;;;;;;3.58;0.98;;;10.10;90.70;;;;;;5029802;28;20128;-78
2021/11/05 07:51:36;;;;;;;3.33;0.80;;;10.10;90.80;;;;;;5028390;28;20107;-78
2021/11/05 07:54:02;;;;;;;11.40;1.20;;;10.10;91.10;;;;;;5028154;28;20048;-77
2021/11/05 07:56:28;;;;;;;1.88;1.20;;;10.20;91.30;;;;;;5029484;28;20022;-78
2021/11/05 07:58:53;;;;;;;2.63;0.98;;;10.20;91.50;;;;;;5023707;28;20018;-78
2021/11/05 08:01:19;;;;;;;3.28;0.93;;;10.30;91.60;;;;;;5023736;28;20022;-78
2021/11/05 08:03:45;;;;;;;5.28;0.85;;;10.40;91.70;;;;;;5028702;28;20043;-78
2021/11/05 08:06:11;;;;;;;12.80;1.25;;;10.40;91.70;;;;;;5027117;28;20021;-77
2021/11/05 08:08:36;;;;;;;3.30;1.05;;;10.50;91.90;;;;;;5028021;28;20042;-78
2021/11/05 08:11:03;;;;;;;4.15;0.82;;;10.50;92.00;;;;;;5026192;28;20034;-77
2021/11/05 08:13:28;;;;;;;6.00;0.63;;;10.60;92.10;;;;;;5029094;28;20029;-77
2021/11/05 08:16:00;;;;;;;7.38;0.93;;;10.60;92.00;;;;;;5029497;28;20354;-76
2021/11/05 08:18:26;;;;;;;0.43;0.40;;;10.60;92.00;;;;;;5028058;28;20481;-77
2021/11/05 08:20:51;;;;;;;0.90;0.40;;;10.70;92.00;;;;;;5024980;28;20107;-78
2021/11/05 08:23:20;;;;;;;5.30;0.85;;;10.70;91.90;;;;;;5026336;28;20038;-77
2021/11/05 08:25:47;;;;;;;2.65;0.70;;;10.80;91.90;;;;;;5028101;28;20036;-78
2021/11/05 08:28:15;;;;;;;8.75;0.75;;;10.80;91.80;;;;;;5026977;28;20041;-77
2021/11/05 08:30:42;;;;;;;5.22;0.60;;;10.90;91.80;;;;;;5030552;28;20068;-77
2021/11/05 08:33:08;;;;;;;1.35;1.23;;;11.00;91.80;;;;;;5024319;28;20026;-77
2021/11/05 08:35:33;;;;;;;2.95;0.93;;;11.00;91.70;;;;;;5034350;28;20044;-77
2021/11/05 08:38:01;;;;;;;1.40;0.30;;;11.10;91.60;;;;;;5031642;28;20029;-78
2021/11/05 08:40:30;;;;;;;4.95;0.90;;;11.10;91.50;;;;;;5030551;28;20029;-77
2021/11/05 08:42:56;;;;;;;2.47;0.60;;;11.20;91.50;;;;;;5033975;28;20590;-78
2021/11/05 08:45:22;;;;;;;2.95;0.70;;;11.20;91.00;;;;;;5030951;28;20058;-77
2021/11/05 08:47:48;;;;;;;3.83;0.43;;;11.20;90.90;;;;;;5028315;28;20053;-77
2021/11/05 08:50:21;;;;;;;7.78;0.70;;;11.20;90.80;;;;;;5031856;28;20033;-77
2021/11/05 08:52:48;;;;;;;2.03;0.93;;;11.20;90.70;;;;;;5031834;28;20022;-77
2021/11/05 08:55:15;;;;;;;5.55;0.60;;;11.20;90.70;;;;;;5031690;28;20037;-77
2021/11/05 08:57:40;;;;;;;0.63;0.40;;;11.20;91.00;;;;;;5030780;28;20033;-78
2021/11/05 09:00:25;;;;;;;2.20;0.60;;;11.20;90.20;;;;;;5032392;28;20504;-77
2021/11/05 09:02:51;;;;;;;3.00;0.93;;;11.20;89.90;;;;;;5031484;28;20068;-77
2021/11/05 09:05:18;;;;;;;3.92;1.73;;;11.10;89.50;;;;;;5030940;28;20050;-77
2021/11/05 09:07:43;;;;;;;7.38;0.88;;;11.10;89.70;;;;;;5031187;28;20029;-77
2021/11/05 09:10:10;;;;;;;2.63;1.00;;;11.00;89.40;;;;;;5028611;28;20099;-76
2021/11/05 09:12:38;;;;;;;2.65;0.80;;;10.90;89.50;;;;;;5025568;28;20060;-76
2021/11/05 09:15:06;;;;;;;6.45;1.08;;;10.90;90.00;;;;;;5029274;28;20029;-76
2021/11/05 09:17:32;;;;;;;1.65;0.77;;;10.90;90.40;;;;;;5029934;28;20075;-76
2021/11/05 09:19:58;;;;;;;2.80;0.77;;;10.90;90.10;;;;;;5032282;28;20025;-76
2021/11/05 09:22:23;;;;;;;2.30;0.82;;;10.90;90.30;;;;;;5031242;28;20034;-74
2021/11/05 09:24:50;;;;;;;1.95;1.00;;;11.00;90.70;;;;;;5031410;28;20067;-76
2021/11/05 09:27:17;;;;;;;6.13;1.48;;;11.10;90.90;;;;;;5031074;28;20121;-77
2021/11/05 09:29:42;;;;;;;1.38;0.50;;;11.10;90.70;;;;;;5031031;28;20167;-77
2021/11/05 09:32:08;;;;;;;3.83;0.65;;;11.20;90.70;;;;;;5032696;28;20112;-78
2021/11/05 09:34:34;;;;;;;1.10;0.90;;;11.30;90.40;;;;;;5031703;28;20052;-77
2021/11/05 09:37:02;;;;;;;3.15;0.90;;;11.30;90.10;;;;;;5032719;28;20028;-77
2021/11/05 09:39:30;;;;;;;1.20;0.68;;;11.30;90.00;;;;;;5032990;28;20366;-77
2021/11/05 09:41:57;;;;;;;0.38;0.38;;;11.30;90.00;;;;;;5028290;28;20064;-78
2021/11/05 09:44:23;;;;;;;2.03;0.80;;;11.20;90.00;;;;;;5029911;28;20044;-77
2021/11/05 09:46:49;;;;;;;1.40;0.70;;;11.20;90.20;;;;;;5030119;28;20041;-77
2021/11/05 09:49:15;;;;;;;7.95;0.75;;;11.20;90.30;;;;;;5031870;28;20576;-78
2021/11/05 09:51:41;;;;;;;1.70;0.85;;;11.20;90.30;;;;;;5031569;28;20041;-77
2021/11/05 09:54:10;;;;;;;1.38;0.80;;;11.20;90.40;;;;;;5026854;28;20153;-77
2021/11/05 09:56:36;;;;;;;0.38;0.22;;;11.20;90.60;;;;;;5025283;28;20053;-77
2021/11/05 09:59:02;;;;;;;0.70;0.30;;;11.10;90.70;;;;;;5030814;28;20042;-77
2021/11/05 10:01:28;;;;;;;0.95;0.38;;;11.10;91.00;;;;;;5033343;28;20067;-78
2021/11/05 10:03:53;;;;;;;0.98;0.63;;;11.20;91.10;;;;;;5032365;28;20053;-77
2021/11/05 10:06:22;;;;;;;0.30;0.30;;;11.20;91.20;;;;;;5032087;28;20053;-78
2021/11/05 10:08:52;;;;;;;0.60;0.40;;;11.20;91.40;;;;;;5031338;28;20088;-77
2021/11/05 10:11:32;;;;;;;0.20;0.20;;;11.20;91.60;;;;;;5029988;28;20025;-78
2021/11/05 10:14:00;;;;;;;0.55;0.47;;;11.20;91.70;;;;;;5033425;28;20087;-78
2021/11/05 10:16:27;;;;;;;0.63;0.30;;;11.20;91.90;;;;;;5032741;28;20080;-77
2021/11/05 10:19:04;;;;;;;2.67;0.73;;;11.20;92.00;;;;;;5024501;28;20034;-77
2021/11/05 10:21:40;;;;;;;3.33;0.77;;;11.30;92.10;;;;;;5030978;28;20112;-78
2021/11/05 10:24:15;;;;;;;0.35;0.30;;;11.30;92.20;;;;;;5030101;28;20507;-78
2021/11/05 10:26:41;;;;;;;0.20;0.20;;;11.30;92.20;;;;;;5029606;28;20025;-78
2021/11/05 10:29:23;;;;;;;2.05;1.38;;;11.30;92.20;;;;;;5031948;28;20048;-79
2021/11/05 10:31:49;;;;;;;5.82;0.90;;;11.40;92.40;;;;;;5018387;28;20021;-78
2021/11/05 10:34:14;;;;;;;4.35;0.88;;;11.50;92.50;;;;;;5031602;28;20469;-78
2021/11/05 10:36:48;;;;;;;5.63;0.90;;;11.60;92.80;;;;;;5030512;28;20033;-78
2021/11/05 10:39:15;;;;;;;11.75;1.15;;;11.60;92.80;;;;;;5023440;28;20046;-78
2021/11/05 10:41:40;;;;;;;7.78;0.70;;;11.70;92.70;;;;;;5026480;28;20120;-77
2021/11/05 10:44:17;;;;;;;4.97;0.88;;;11.80;92.70;;;;;;5026721;28;20515;-77
2021/11/05 10:46:43;;;;;;;4.18;0.90;;;11.80;92.80;;;;;;5025539;28;20044;-78
2021/11/05 10:49:27;;;;;;;3.95;0.85;;;12.00;92.90;;;;;;5032060;28;20044;-78
2021/11/05 10:52:18;;;;;;;1.98;0.80;;;12.10;93.00;;;;;;5031103;28;20025;-77
2021/11/05 10:54:55;;;;;;;8.70;0.85;;;12.20;92.80;;;;;;5021659;28;20032;-78
2021/11/05 10:57:41;;;;;;;2.28;0.50;;;12.30;92.70;;;;;;5032488;28;20045;-77
2021/11/05 11:00:22;;;;;;;2.05;0.70;;;12.40;92.60;;;;;;5024586;28;20033;-79
2021/11/05 11:02:48;;;;;;;3.22;0.80;;;12.40;92.40;;;;;;5027924;28;20022;-76
2021/11/05 11:05:34;;;;;;;3.22;0.65;;;12.40;92.30;;;;;;5029356;28;20055;-75
2021/11/05 11:08:01;;;;;;;5.45;0.88;;;12.50;92.30;;;;;;5019515;28;20033;-76
2021/11/05 11:10:32;;;;;;;3.83;0.75;;;12.50;92.20;;;;;;5031423;28;20030;-76
2021/11/05 11:12:57;;;;;;;3.70;0.70;;;12.60;92.20;;;;;;5031358;28;20033;-75
2021/11/05 11:15:35;;;;;;;3.88;1.27;;;12.60;92.20;;;;;;5031909;28;20040;-75
2021/11/05 11:18:01;;;;;;;8.35;0.80;;;12.60;92.30;;;;;;5017904;28;20424;-76
2021/11/05 11:20:36;;;;;;;2.08;0.30;;;12.60;92.10;;;;;;5031582;28;20037;-75
2021/11/05 11:23:02;;;;;;;0.63;0.40;;;12.70;92.10;;;;;;5029172;28;20033;-75
2021/11/05 11:25:29;;;;;;;1.70;0.40;;;12.70;91.80;;;;;;5030608;28;20117;-76
2021/11/05 11:27:56;;;;;;;1.10;0.30;;;12.70;91.80;;;;;;5028531;28;20038;-75
2021/11/05 11:30:22;;;;;;;2.80;0.50;;;12.80;91.70;;;;;;5024607;28;20037;-75
2021/11/05 11:32:50;;;;;;;3.90;1.50;;;12.80;91.50;;;;;;5024506;28;20432;-76
2021/11/05 11:35:16;;;;;;;1.20;0.38;;;12.90;91.50;;;;;;5029445;28;20020;-76
2021/11/05 11:37:42;;;;;;;1.75;0.32;;;13.00;91.40;;;;;;5024167;28;20030;-76
2021/11/05 11:40:11;;;;;;;1.95;0.40;;;13.00;91.40;;;;;;5018901;28;20041;-76
2021/11/05 11:42:38;;;;;;;7.72;1.00;;;13.10;91.50;;;;;;5021463;28;20026;-78
2021/11/05 11:45:10;;;;;;;3.50;0.82;;;13.10;91.50;;;;;;5016596;28;20486;-67
2021/11/05 11:47:43;;;;;;;5.18;0.88;;;13.10;91.60;;;;;;5029974;28;20100;-72
2021/11/05 11:50:38;;;;;;;4.85;0.60;;;13.20;91.90;;;;;;5019123;28;20085;-84
2021/11/05 11:53:06;;;;;;;14.90;0.98;;;13.20;91.50;;;;;;5019567;28;20108;-80
2021/11/05 11:55:34;;;;;;;6.40;1.08;;;13.30;92.20;;;;;;5021759;28;20137;-78
2021/11/05 11:58:18;;;;;;;6.65;0.98;;;13.30;92.00;;;;;;5027833;28;20373;-75
2021/11/05 12:00:47;;;;;;;5.30;1.40;;;13.30;91.90;;;;;;5028525;28;20082;-77
2021/11/05 12:03:27;;;;;;;4.68;0.90;;;13.30;91.90;;;;;;5031158;28;20109;-78
2021/11/05 12:06:00;;;;;;;4.75;1.20;;;13.40;91.70;;;;;;5017049;28;20034;-79
2021/11/05 12:08:37;;;;;;;3.95;0.80;;;13.40;91.60;;;;;;5031385;28;20034;-79
2021/11/05 12:11:15;;;;;;;7.22;1.15;;;13.40;91.60;;;;;;5029499;28;20052;-77
2021/11/05 12:13:49;;;;;;;5.45;0.88;;;13.40;91.70;;;;;;5030711;28;20040;-77
2021/11/05 12:16:25;;;;;;;3.92;0.82;;;13.50;91.50;;;;;;5029125;28;20116;-77
2021/11/05 12:21:24;;;;;;;8.48;3.60;;;13.50;91.20;;;;;;5025106;28;20048;-74
2021/11/05 12:24:16;;;;;;;3.22;0.93;;;13.50;90.90;;;;;;5022062;28;20029;-77
2021/11/05 12:26:54;;;;;;;4.18;1.20;;;13.60;91.00;;;;;;5027073;28;20022;-77
2021/11/05 12:29:31;;;;;;;8.40;1.40;;;13.60;91.10;;;;;;5029814;28;20049;-77
2021/11/05 12:32:16;;;;;;;12.70;1.58;;;13.70;90.80;;;;;;5016271;28;20030;-77
2021/11/05 12:34:48;;;;;;;9.27;1.17;;;13.70;90.90;;;;;;5020126;28;20033;-71
2021/11/05 12:37:29;;;;;;;4.30;1.55;;;13.70;90.90;;;;;;5013250;28;20037;-74
2021/11/05 12:39:55;;;;;;;8.95;1.10;;;13.80;90.90;;;;;;5023253;28;20038;-74
2021/11/05 12:42:21;;;;;;;4.38;1.10;;;13.80;90.70;;;;;;5026294;28;20109;-70
2021/11/05 12:45:04;;;;;;;8.65;1.42;;;13.80;90.60;;;;;;5028020;28;20480;-71
2021/11/05 12:47:49;;;;;;;12.50;1.40;;;13.90;90.10;;;;;;5029711;28;20496;-78
2021/11/05 12:50:24;;;;;;;5.47;1.10;;;14.00;90.20;;;;;;5028764;28;20033;-78
2021/11/05 12:53:09;;;;;;;7.80;1.55;;;14.00;90.10;;;;;;5026249;28;20100;-78
2021/11/05 12:55:43;;;;;;;5.72;1.60;;;14.00;90.00;;;;;;5024760;28;20041;-78